Time;durP1;ratioP1;P1;durP2;ratioP2;P2;SDS_P1;SDS_P2;PMS_P1;PMS_P2;Temp;Humidity;BMP_temperature;BMP_pressure;BME280_temperature;BME280_humidity;BME280_pressure;Samples;Min_cycle;Max_cycle;Signal;HPM_P1;HPM_P2
2023/11/10 00:00:28;;;;;;;32.90;25.70;;;;;21.70;98687.00;;;;2086257;28;20223;-52
2023/11/10 00:01:28;;;;;;;30.17;24.73;;;;;21.80;98692.00;;;;2077200;28;20217;-52
2023/11/10 00:02:29;;;;;;;31.47;25.90;;;;;21.80;98698.00;;;;2082708;28;20764;-52
2023/11/10 00:03:29;;;;;;;30.80;26.67;;;;;21.80;98695.00;;;;2074810;28;20287;-52
2023/11/10 00:04:29;;;;;;;35.23;26.27;;;;;21.80;98690.00;;;;2085859;28;20213;-58
2023/11/10 00:05:29;;;;;;;35.73;25.50;;;;;21.80;98693.00;;;;2085999;28;20216;-56
2023/11/10 00:06:31;;;;;;;30.00;25.10;;;;;21.80;98695.00;;;;2086417;28;20719;-54
2023/11/10 00:07:31;;;;;;;35.08;26.48;;;;;21.70;98691.00;;;;2084515;28;20709;-52
2023/11/10 00:08:32;;;;;;;29.47;25.03;;;;;21.70;98692.00;;;;2076429;28;20212;-56
2023/11/10 00:09:34;;;;;;;30.63;23.53;;;;;21.70;98700.00;;;;2085270;28;20311;-54
2023/11/10 00:10:35;;;;;;;32.05;25.08;;;;;21.70;98692.00;;;;2085344;28;20324;-55
2023/11/10 00:11:38;;;;;;;29.63;23.20;;;;;21.70;98574.00;;;;2084717;28;20308;-57
2023/11/10 00:12:38;;;;;;;28.77;24.98;;;;;21.70;98706.00;;;;2069585;28;20221;-55
2023/11/10 00:13:39;;;;;;;31.40;24.03;;;;;21.70;98698.00;;;;2084997;28;20221;-54
2023/11/10 00:14:40;;;;;;;28.75;23.10;;;;;21.70;98690.00;;;;2084972;28;20221;-54
2023/11/10 00:15:40;;;;;;;28.07;23.43;;;;;21.70;98690.00;;;;2075616;28;20217;-55
2023/11/10 00:16:44;;;;;;;25.83;21.67;;;;;21.70;98747.00;;;;2083435;28;20604;-54
2023/11/10 00:17:45;;;;;;;28.73;22.70;;;;;21.70;98685.00;;;;2071954;28;20217;-56
2023/11/10 00:18:45;;;;;;;26.07;21.63;;;;;21.70;98687.00;;;;2085411;28;20627;-53
2023/11/10 00:19:45;;;;;;;25.20;21.80;;;;;21.70;98690.00;;;;2086440;28;20215;-53
2023/11/10 00:20:46;;;;;;;28.20;21.23;;;;;21.70;98677.00;;;;2082350;28;20298;-54
2023/11/10 00:21:49;;;;;;;27.70;20.90;;;;;21.70;98690.00;;;;2084601;28;20221;-54
2023/11/10 00:22:50;;;;;;;23.23;19.98;;;;;21.70;98681.00;;;;2075303;28;20208;-56
2023/11/10 00:23:52;;;;;;;22.37;19.20;;;;;21.70;98714.00;;;;2084788;28;20220;-52
2023/11/10 00:24:53;;;;;;;21.40;19.10;;;;;21.70;98574.00;;;;2085770;28;20220;-54
2023/11/10 00:25:53;;;;;;;22.43;18.37;;;;;21.70;98678.00;;;;2084022;28;21122;-55
2023/11/10 00:26:53;;;;;;;25.97;18.93;;;;;21.70;98680.00;;;;2085870;28;20304;-56
2023/11/10 00:27:54;;;;;;;23.10;19.67;;;;;21.70;98679.00;;;;2075662;28;20927;-58
2023/11/10 00:28:54;;;;;;;22.60;19.80;;;;;21.70;98680.00;;;;2085555;28;20326;-54
2023/11/10 00:29:55;;;;;;;21.37;18.10;;;;;21.70;98674.00;;;;2085940;28;20723;-53
2023/11/10 00:30:56;;;;;;;20.80;17.08;;;;;21.60;98677.00;;;;2085287;28;20227;-55
2023/11/10 00:31:56;;;;;;;20.70;18.13;;;;;21.60;98677.00;;;;2084361;28;20256;-54
2023/11/10 00:32:56;;;;;;;22.07;17.63;;;;;21.60;98681.00;;;;2070303;28;20418;-54
2023/11/10 00:33:57;;;;;;;21.17;17.37;;;;;21.70;98673.00;;;;2085179;28;20236;-58
2023/11/10 00:34:57;;;;;;;18.47;16.17;;;;;21.60;98677.00;;;;2086126;28;20212;-57
2023/11/10 00:35:58;;;;;;;21.10;16.83;;;;;21.70;98679.00;;;;2085249;28;20285;-56
2023/11/10 00:36:58;;;;;;;19.33;15.47;;;;;21.60;98679.00;;;;2085189;28;20228;-56
2023/11/10 00:37:59;;;;;;;21.07;15.67;;;;;21.60;98676.00;;;;2075102;28;20294;-53
2023/11/10 00:38:59;;;;;;;18.60;16.20;;;;;21.60;98676.00;;;;2079138;28;20217;-55
2023/11/10 00:40:01;;;;;;;20.20;16.30;;;;;21.60;98669.00;;;;2079486;28;20206;-57
2023/11/10 00:41:01;;;;;;;16.83;14.90;;;;;21.60;98675.00;;;;2084978;28;20608;-55
2023/11/10 00:42:01;;;;;;;17.60;14.67;;;;;21.60;98675.00;;;;2085595;28;20208;-58
2023/11/10 00:43:02;;;;;;;17.10;14.47;;;;;21.60;98670.00;;;;2074269;28;20296;-56
2023/11/10 00:44:02;;;;;;;18.60;15.17;;;;;21.60;98672.00;;;;2079245;28;20209;-52
2023/11/10 00:45:02;;;;;;;18.53;14.07;;;;;21.60;98676.00;;;;2084776;28;21945;-54
2023/11/10 00:46:03;;;;;;;16.80;14.90;;;;;21.60;98673.00;;;;2086132;28;20220;-53
2023/11/10 00:47:04;;;;;;;14.70;13.17;;;;;21.60;98679.00;;;;2083536;28;20311;-56
2023/11/10 00:48:04;;;;;;;17.03;13.43;;;;;21.60;98667.00;;;;2075126;28;20231;-55
2023/11/10 00:49:05;;;;;;;17.70;14.00;;;;;21.60;98670.00;;;;2091913;28;20631;-55
2023/11/10 00:50:06;;;;;;;17.10;13.00;;;;;21.60;98673.00;;;;2077544;28;20206;-58
2023/11/10 00:51:06;;;;;;;15.23;12.60;;;;;21.60;98666.00;;;;2082006;28;20233;-53
2023/11/10 00:52:07;;;;;;;18.20;12.93;;;;;21.60;98666.00;;;;2079768;28;20221;-54
2023/11/10 00:53:08;;;;;;;17.30;13.30;;;;;21.60;98670.00;;;;2075804;28;20256;-53
2023/11/10 00:54:08;;;;;;;14.67;12.60;;;;;21.50;98665.00;;;;2079020;28;20466;-56
2023/11/10 00:55:10;;;;;;;15.73;12.00;;;;;21.50;98660.00;;;;2082090;28;20227;-55
2023/11/10 00:56:10;;;;;;;15.25;12.05;;;;;21.50;98653.00;;;;2079616;28;20216;-59
2023/11/10 00:57:11;;;;;;;13.40;11.77;;;;;21.50;98661.00;;;;2083301;28;20228;-54
2023/11/10 00:58:11;;;;;;;14.17;12.27;;;;;21.50;98658.00;;;;2076347;28;20217;-53
2023/11/10 00:59:11;;;;;;;15.93;12.63;;;;;21.50;98655.00;;;;2083066;28;20241;-53
2023/11/10 01:00:12;;;;;;;17.00;12.67;;;;;21.50;98660.00;;;;2085509;28;20213;-53
2023/11/10 01:01:13;;;;;;;14.07;11.50;;;;;21.50;98673.00;;;;2085145;28;20247;-56
2023/11/10 01:02:13;;;;;;;15.70;12.33;;;;;21.50;98652.00;;;;2081332;28;20478;-54
2023/11/10 01:03:13;;;;;;;14.57;11.70;;;;;21.50;98658.00;;;;2076110;28;20224;-58
2023/11/10 01:04:14;;;;;;;13.53;11.40;;;;;21.60;98688.00;;;;2084593;28;20263;-55
2023/11/10 01:05:15;;;;;;;12.73;11.10;;;;;21.50;98651.00;;;;2080688;28;20246;-57
2023/11/10 01:06:16;;;;;;;13.05;10.52;;;;;21.50;98658.00;;;;2077490;28;20533;-53
2023/11/10 01:07:16;;;;;;;14.60;11.00;;;;;21.50;98663.00;;;;2070459;28;20682;-54
2023/11/10 01:08:17;;;;;;;11.43;10.23;;;;;21.50;98663.00;;;;2073387;28;21085;-54
2023/11/10 01:09:18;;;;;;;13.23;11.30;;;;;21.50;98658.00;;;;2083445;28;20228;-54
2023/11/10 01:10:18;;;;;;;12.13;10.00;;;;;21.50;98652.00;;;;2085693;28;20621;-54
2023/11/10 01:11:19;;;;;;;12.60;10.10;;;;;21.50;98657.00;;;;2085053;28;20220;-54
2023/11/10 01:12:19;;;;;;;12.33;10.53;;;;;21.50;98711.00;;;;2082674;28;21125;-56
2023/11/10 01:13:19;;;;;;;11.57;10.37;;;;;21.50;98656.00;;;;2071196;28;20248;-57
2023/11/10 01:14:21;;;;;;;11.97;9.07;;;;;21.50;98656.00;;;;2084837;28;20220;-54
2023/11/10 01:15:21;;;;;;;11.85;8.98;;;;;21.50;98651.00;;;;2085638;28;20728;-59
2023/11/10 01:16:22;;;;;;;12.47;9.50;;;;;21.50;98653.00;;;;2084933;28;20236;-55
2023/11/10 01:17:23;;;;;;;11.80;9.70;;;;;21.50;98650.00;;;;2085093;28;20221;-52
2023/11/10 01:18:23;;;;;;;11.00;9.43;;;;;21.50;98647.00;;;;2075144;28;20644;-54
2023/11/10 01:19:23;;;;;;;11.50;9.40;;;;;21.50;98647.00;;;;2085935;28;20217;-55
2023/11/10 01:20:24;;;;;;;13.30;9.87;;;;;21.50;98638.00;;;;2086005;28;20366;-57
2023/11/10 01:21:24;;;;;;;9.70;8.70;;;;;21.50;98642.00;;;;2084889;28;20217;-54
2023/11/10 01:22:26;;;;;;;9.53;8.20;;;;;21.50;98651.00;;;;2085468;28;20299;-53
2023/11/10 01:23:26;;;;;;;11.93;8.27;;;;;21.50;98648.00;;;;2074879;28;20240;-53
2023/11/10 01:24:27;;;;;;;13.10;8.70;;;;;21.50;98653.00;;;;2085862;28;20575;-53
2023/11/10 01:25:28;;;;;;;10.20;8.60;;;;;21.50;98637.00;;;;2085681;28;20235;-59
2023/11/10 01:26:28;;;;;;;11.80;9.33;;;;;21.50;98645.00;;;;2084949;28;20229;-55
2023/11/10 01:27:29;;;;;;;10.53;8.40;;;;;21.50;98648.00;;;;2084049;28;20221;-54
2023/11/10 01:28:29;;;;;;;8.40;7.40;;;;;21.40;98636.00;;;;2074072;28;20228;-53
2023/11/10 01:29:30;;;;;;;10.07;7.80;;;;;21.50;98638.00;;;;2085429;28;20456;-56
2023/11/10 01:30:30;;;;;;;9.33;8.17;;;;;21.40;98637.00;;;;2084762;28;20237;-54
2023/11/10 01:31:30;;;;;;;11.70;8.20;;;;;21.40;98649.00;;;;2085638;28;20227;-54
2023/11/10 01:32:31;;;;;;;8.27;7.23;;;;;21.40;98648.00;;;;2082286;28;20217;-54
2023/11/10 01:33:31;;;;;;;10.80;7.90;;;;;21.40;98603.00;;;;2068830;28;20213;-53
2023/11/10 01:34:32;;;;;;;8.97;8.07;;;;;21.40;98635.00;;;;2084946;28;20220;-53
2023/11/10 01:35:32;;;;;;;10.07;7.47;;;;;21.40;98637.00;;;;2084209;28;20245;-53
2023/11/10 01:36:32;;;;;;;9.80;7.50;;;;;21.40;98652.00;;;;2083719;28;20217;-56
2023/11/10 01:37:33;;;;;;;9.57;7.73;;;;;21.40;98641.00;;;;2077184;28;20962;-55
2023/11/10 01:38:33;;;;;;;8.80;7.77;;;;;21.40;98635.00;;;;2066930;28;20688;-57
2023/11/10 01:39:34;;;;;;;9.33;6.73;;;;;21.40;98634.00;;;;2077797;28;20925;-56
2023/11/10 01:40:40;;;;;;;8.27;7.00;;;;;21.40;98630.00;;;;2074390;28;20942;-54
2023/11/10 01:41:41;;;;;;;9.13;6.90;;;;;21.40;98634.00;;;;2083851;28;20220;-54
2023/11/10 01:42:41;;;;;;;9.50;7.20;;;;;21.40;98621.00;;;;2072726;28;20720;-55
2023/11/10 01:43:41;;;;;;;7.80;6.30;;;;;21.40;98633.00;;;;2085406;28;20217;-54
2023/11/10 01:44:42;;;;;;;10.00;7.57;;;;;21.40;98628.00;;;;2084614;28;20713;-54
2023/11/10 01:45:43;;;;;;;8.60;7.27;;;;;21.40;98632.00;;;;2076895;28;20229;-53
2023/11/10 01:46:45;;;;;;;8.68;6.95;;;;;21.40;98626.00;;;;2085535;28;20221;-55
2023/11/10 01:47:46;;;;;;;9.32;6.70;;;;;21.40;98624.00;;;;2073125;28;20216;-54
2023/11/10 01:48:46;;;;;;;7.47;6.30;;;;;21.40;98626.00;;;;2082801;28;20220;-54
2023/11/10 01:49:47;;;;;;;8.60;5.97;;;;;21.40;98626.00;;;;2082960;28;20213;-55
2023/11/10 01:50:47;;;;;;;7.53;6.30;;;;;21.40;98622.00;;;;2085546;28;20278;-56
2023/11/10 01:51:52;;;;;;;6.53;5.87;;;;;21.40;98635.00;;;;2084204;28;20213;-55
2023/11/10 01:52:52;;;;;;;8.52;6.57;;;;;21.40;98629.00;;;;2076352;28;20336;-54
2023/11/10 01:53:53;;;;;;;7.50;6.17;;;;;21.40;98622.00;;;;2084026;28;20240;-54
2023/11/10 01:54:54;;;;;;;6.50;5.30;;;;;21.40;98622.00;;;;2074894;28;20220;-56
2023/11/10 01:55:54;;;;;;;7.30;5.35;;;;;21.40;98630.00;;;;2067013;28;20225;-55
2023/11/10 01:56:55;;;;;;;7.80;6.50;;;;;21.40;98618.00;;;;2072425;28;20245;-54
2023/11/10 01:57:55;;;;;;;6.20;5.60;;;;;21.30;98626.00;;;;2066098;28;20232;-54
2023/11/10 01:58:55;;;;;;;6.00;5.40;;;;;21.40;98626.00;;;;2084328;28;20225;-59
2023/11/10 01:59:56;;;;;;;6.10;5.07;;;;;21.20;98626.00;;;;2076946;28;20229;-55
2023/11/10 02:00:56;;;;;;;8.07;5.77;;;;;21.40;98626.00;;;;2068651;28;20367;-55
2023/11/10 02:01:56;;;;;;;7.33;6.13;;;;;21.40;98635.00;;;;2075658;28;20677;-54
2023/11/10 02:03:02;;;;;;;6.20;4.83;;;;;21.40;98625.00;;;;2075484;28;20697;-54
2023/11/10 02:04:03;;;;;;;5.45;4.75;;;;;21.40;98625.00;;;;2083683;28;20311;-55
2023/11/10 02:05:03;;;;;;;7.47;5.83;;;;;21.30;98621.00;;;;2085620;28;20217;-58
2023/11/10 02:06:04;;;;;;;6.77;5.40;;;;;21.30;98617.00;;;;2085503;28;20463;-57
2023/11/10 02:07:05;;;;;;;5.80;5.20;;;;;21.30;98617.00;;;;2083142;28;20223;-55
2023/11/10 02:08:06;;;;;;;6.90;5.30;;;;;21.30;98602.00;;;;2072455;28;20502;-54
2023/11/10 02:09:06;;;;;;;6.80;5.55;;;;;21.30;98609.00;;;;2077286;28;20621;-56
2023/11/10 02:10:07;;;;;;;6.70;5.17;;;;;21.30;98605.00;;;;2084827;28;20300;-55
2023/11/10 02:11:08;;;;;;;6.33;4.83;;;;;21.30;98601.00;;;;2083412;28;20279;-55
2023/11/10 02:12:08;;;;;;;8.00;5.40;;;;;21.30;98605.00;;;;2085221;28;20463;-57
2023/11/10 02:13:09;;;;;;;7.70;5.23;;;;;21.30;98605.00;;;;2076147;28;20712;-54
2023/11/10 02:14:11;;;;;;;5.40;4.57;;;;;21.30;98599.00;;;;2070286;28;20741;-53
2023/11/10 02:15:11;;;;;;;6.70;5.72;;;;;21.30;98601.00;;;;2076611;28;21090;-55
2023/11/10 02:16:12;;;;;;;5.33;4.00;;;;;21.30;98601.00;;;;2083920;28;20312;-54
2023/11/10 02:17:14;;;;;;;4.80;4.27;;;;;21.30;98602.00;;;;2084949;28;20209;-55
2023/11/10 02:18:15;;;;;;;6.78;4.43;;;;;21.30;98615.00;;;;2072217;28;20286;-54
2023/11/10 02:19:15;;;;;;;5.85;4.30;;;;;21.30;98595.00;;;;2077576;28;20289;-56
2023/11/10 02:20:16;;;;;;;7.53;4.57;;;;;21.30;98601.00;;;;2083191;28;20217;-53
2023/11/10 02:21:16;;;;;;;6.77;4.10;;;;;21.30;98597.00;;;;2075377;28;20209;-54
2023/11/10 02:22:16;;;;;;;6.50;4.60;;;;;21.30;98596.00;;;;2076178;28;20232;-56
2023/11/10 02:23:17;;;;;;;6.07;4.17;;;;;21.30;98585.00;;;;2072222;28;20217;-59
2023/11/10 02:24:17;;;;;;;4.60;3.80;;;;;21.30;98596.00;;;;2076148;28;20308;-54
2023/11/10 02:25:18;;;;;;;6.10;4.17;;;;;21.30;98591.00;;;;2067893;28;20228;-55
2023/11/10 02:26:19;;;;;;;7.25;4.57;;;;;21.30;98596.00;;;;2084854;28;20212;-60
2023/11/10 02:27:19;;;;;;;5.83;4.00;;;;;21.30;98591.00;;;;2084996;28;20205;-57
2023/11/10 02:28:19;;;;;;;5.60;4.40;;;;;21.30;98597.00;;;;2073029;28;20689;-56
2023/11/10 02:29:20;;;;;;;5.90;4.20;;;;;21.30;98597.00;;;;2085862;28;20570;-55
2023/11/10 02:30:20;;;;;;;5.00;3.83;;;;;21.30;98598.00;;;;2084488;28;20578;-55
2023/11/10 02:31:20;;;;;;;5.60;3.90;;;;;21.30;98591.00;;;;2085511;28;20270;-55
2023/11/10 02:32:21;;;;;;;5.67;4.47;;;;;21.30;98590.00;;;;2083762;28;20254;-54
2023/11/10 02:33:21;;;;;;;4.53;4.00;;;;;21.30;98595.00;;;;2075038;28;20765;-58
2023/11/10 02:34:21;;;;;;;5.70;3.77;;;;;21.30;98595.00;;;;2081657;28;20565;-55
2023/11/10 02:35:22;;;;;;;5.13;4.10;;;;;21.30;98591.00;;;;2084812;28;20709;-58
2023/11/10 02:36:22;;;;;;;4.40;3.50;;;;;21.30;98585.00;;;;2085490;28;20209;-57
2023/11/10 02:37:22;;;;;;;4.70;3.50;;;;;21.30;98592.00;;;;2070512;28;20218;-55
2023/11/10 02:38:23;;;;;;;5.20;3.80;;;;;21.30;98595.00;;;;2058645;28;20219;-55
2023/11/10 02:39:24;;;;;;;5.10;3.43;;;;;21.30;98593.00;;;;2060314;28;20403;-55
2023/11/10 02:40:24;;;;;;;4.30;3.27;;;;;21.30;98596.00;;;;2083392;28;25172;-55
2023/11/10 02:41:24;;;;;;;4.43;3.43;;;;;21.30;98607.00;;;;2090738;28;20219;-56
2023/11/10 02:42:25;;;;;;;6.23;3.53;;;;;21.20;98592.00;;;;2080785;28;20232;-55
2023/11/10 02:43:25;;;;;;;4.00;2.87;;;;;21.20;98595.00;;;;2075952;28;20220;-54
2023/11/10 02:44:26;;;;;;;3.80;3.23;;;;;21.20;98598.00;;;;2084889;28;20279;-54
2023/11/10 02:45:26;;;;;;;4.00;3.20;;;;;21.20;98591.00;;;;2084843;28;20671;-55
2023/11/10 02:46:27;;;;;;;4.13;3.13;;;;;21.20;98592.00;;;;2085573;28;20232;-57
2023/11/10 02:47:27;;;;;;;3.83;3.13;;;;;21.20;98605.00;;;;2083956;28;20212;-57
2023/11/10 02:48:28;;;;;;;4.50;3.33;;;;;21.30;98345.00;;;;2075273;28;20221;-56
2023/11/10 02:49:28;;;;;;;5.97;3.20;;;;;21.20;98599.00;;;;2075812;28;20268;-55
2023/11/10 02:50:29;;;;;;;3.73;2.90;;;;;21.20;98595.00;;;;2066853;28;20289;-54
2023/11/10 02:51:29;;;;;;;3.90;3.00;;;;;21.20;98603.00;;;;2083718;28;20231;-56
2023/11/10 02:52:29;;;;;;;4.23;2.87;;;;;21.20;98596.00;;;;2084074;28;20244;-54
2023/11/10 02:53:30;;;;;;;3.60;2.73;;;;;21.20;98606.00;;;;2072463;28;20253;-58
2023/11/10 02:54:30;;;;;;;3.90;2.87;;;;;21.30;98594.00;;;;2084394;28;20221;-57
2023/11/10 02:55:31;;;;;;;4.43;2.60;;;;;21.20;98594.00;;;;2085421;28;20290;-55
2023/11/10 02:56:31;;;;;;;4.10;3.03;;;;;21.20;98596.00;;;;2084505;28;20224;-54
2023/11/10 02:57:32;;;;;;;3.33;3.00;;;;;21.20;98597.00;;;;2081223;28;20217;-59
2023/11/10 02:58:35;;;;;;;4.30;2.80;;;;;21.10;98598.00;;;;2075235;28;20219;-57
2023/11/10 02:59:37;;;;;;;3.80;2.88;;;;;21.20;98595.00;;;;2078583;28;21614;-57
2023/11/10 03:00:37;;;;;;;4.20;3.22;;;;;21.20;98588.00;;;;2079367;28;20218;-55
2023/11/10 03:01:37;;;;;;;4.73;3.10;;;;;21.20;98591.00;;;;2078152;28;20228;-55
2023/11/10 03:02:38;;;;;;;3.93;2.83;;;;;21.20;98586.00;;;;2066692;28;20221;-55
2023/11/10 03:03:38;;;;;;;4.40;2.93;;;;;21.20;98585.00;;;;2069415;28;20217;-55
2023/11/10 03:04:39;;;;;;;3.37;2.63;;;;;21.20;98590.00;;;;2077494;28;20228;-54
2023/11/10 03:05:40;;;;;;;3.45;2.65;;;;;21.20;98590.00;;;;2079290;28;20247;-56
2023/11/10 03:06:40;;;;;;;4.13;2.80;;;;;21.20;98586.00;;;;2078954;28;20315;-57
2023/11/10 03:07:40;;;;;;;3.30;2.50;;;;;21.20;98595.00;;;;2066243;28;20217;-54
2023/11/10 03:08:41;;;;;;;3.97;2.90;;;;;20.70;98590.00;;;;2071314;28;20357;-57
2023/11/10 03:09:42;;;;;;;3.50;2.37;;;;;21.20;98586.00;;;;2077915;28;20228;-58
2023/11/10 03:10:42;;;;;;;4.03;2.80;;;;;21.20;98584.00;;;;2083012;28;20219;-54
2023/11/10 03:11:43;;;;;;;3.57;2.23;;;;;21.20;98590.00;;;;2081529;28;20244;-54
2023/11/10 03:12:43;;;;;;;3.30;2.50;;;;;21.20;98594.00;;;;2072946;28;20248;-58
2023/11/10 03:13:46;;;;;;;4.00;2.80;;;;;21.20;98580.00;;;;2084881;28;20216;-56
2023/11/10 03:14:48;;;;;;;2.90;2.00;;;;;21.20;98584.00;;;;2084703;28;20735;-55
2023/11/10 03:15:48;;;;;;;3.53;2.35;;;;;21.20;98578.00;;;;2084263;28;20623;-55
2023/11/10 03:16:49;;;;;;;3.70;2.70;;;;;21.20;98588.00;;;;2085220;28;20232;-55
2023/11/10 03:17:49;;;;;;;3.27;2.33;;;;;21.20;98588.00;;;;2072762;28;20219;-54
2023/11/10 03:18:52;;;;;;;2.80;2.60;;;;;21.20;98587.00;;;;2090874;28;20216;-58
2023/11/10 03:19:54;;;;;;;2.85;2.20;;;;;21.20;98587.00;;;;2084335;28;20689;-54
2023/11/10 03:20:55;;;;;;;3.05;2.30;;;;;21.20;98586.00;;;;2076880;28;20315;-54
2023/11/10 03:21:55;;;;;;;2.93;2.30;;;;;21.20;98587.00;;;;2083428;28;20224;-55
2023/11/10 03:22:56;;;;;;;2.80;2.30;;;;;21.20;98589.00;;;;2077232;28;20300;-54
2023/11/10 03:23:56;;;;;;;3.40;2.17;;;;;21.20;98590.00;;;;2094385;28;20218;-57
2023/11/10 03:24:56;;;;;;;3.83;2.20;;;;;21.20;98592.00;;;;2088462;28;21177;-55
2023/11/10 03:25:57;;;;;;;2.57;1.90;;;;;21.10;98584.00;;;;2076636;28;20252;-54
2023/11/10 03:26:57;;;;;;;2.40;1.90;;;;;21.10;98588.00;;;;2078212;28;20692;-56
2023/11/10 03:27:57;;;;;;;2.20;1.73;;;;;21.10;98587.00;;;;2068168;28;20245;-54
2023/11/10 03:28:58;;;;;;;3.43;2.00;;;;;21.20;98592.00;;;;2085740;28;20263;-55
2023/11/10 03:29:58;;;;;;;4.20;2.30;;;;;21.20;98583.00;;;;2074123;28;20221;-58
2023/11/10 03:30:59;;;;;;;4.37;1.97;;;;;21.10;98581.00;;;;2077845;28;20224;-56
2023/11/10 03:32:00;;;;;;;3.30;2.10;;;;;21.10;98573.00;;;;2084620;28;20240;-55
2023/11/10 03:33:00;;;;;;;2.93;1.90;;;;;21.20;98577.00;;;;2075156;28;20221;-56
2023/11/10 03:34:01;;;;;;;3.73;2.10;;;;;21.20;98585.00;;;;2077873;28;20274;-56
2023/11/10 03:35:03;;;;;;;3.87;2.00;;;;;21.10;98575.00;;;;2084350;28;20213;-57
2023/11/10 03:36:03;;;;;;;2.55;1.90;;;;;21.10;98588.00;;;;2077827;28;20502;-55
2023/11/10 03:37:04;;;;;;;2.90;2.13;;;;;21.10;98580.00;;;;2083237;28;20220;-55
2023/11/10 03:38:04;;;;;;;2.90;1.87;;;;;21.10;98578.00;;;;2076960;28;20213;-55
2023/11/10 03:39:05;;;;;;;3.20;1.97;;;;;21.20;98584.00;;;;2085993;28;20247;-55
2023/11/10 03:40:06;;;;;;;2.40;1.73;;;;;21.10;98581.00;;;;2087102;28;20225;-56
2023/11/10 03:41:07;;;;;;;2.60;1.77;;;;;21.10;98585.00;;;;2078832;28;20225;-57
2023/11/10 03:42:07;;;;;;;3.97;1.60;;;;;21.10;98584.00;;;;2077284;28;20926;-55
2023/11/10 03:43:08;;;;;;;2.90;2.10;;;;;21.10;98583.00;;;;2076254;28;20213;-55
2023/11/10 03:44:08;;;;;;;3.07;1.50;;;;;21.10;98577.00;;;;2085668;28;20236;-55
2023/11/10 03:45:09;;;;;;;2.67;1.90;;;;;21.10;98442.00;;;;2070025;28;20214;-54
2023/11/10 03:46:10;;;;;;;3.27;1.80;;;;;21.10;98575.00;;;;2070254;28;20209;-57
2023/11/10 03:47:11;;;;;;;3.97;1.90;;;;;21.10;98555.00;;;;2085512;28;21036;-54
2023/11/10 03:48:11;;;;;;;3.50;1.80;;;;;21.10;98578.00;;;;2075047;28;20205;-54
2023/11/10 03:49:11;;;;;;;3.13;1.63;;;;;21.10;98578.00;;;;2085737;28;20233;-57
2023/11/10 03:50:12;;;;;;;2.70;1.77;;;;;21.10;98584.00;;;;2087207;28;20247;-56
2023/11/10 03:51:12;;;;;;;2.50;1.73;;;;;21.10;98576.00;;;;2081849;28;20217;-56
2023/11/10 03:52:12;;;;;;;3.60;2.07;;;;;21.10;98585.00;;;;2086066;28;20296;-57
2023/11/10 03:53:13;;;;;;;2.70;1.83;;;;;21.10;98576.00;;;;2076128;28;20205;-56
2023/11/10 03:54:13;;;;;;;2.17;1.33;;;;;21.10;98578.00;;;;2086062;28;20228;-57
2023/11/10 03:55:14;;;;;;;4.97;1.90;;;;;21.10;98582.00;;;;2076834;28;20219;-55
2023/11/10 03:56:14;;;;;;;2.80;1.60;;;;;21.10;98580.00;;;;2093364;28;20215;-57
2023/11/10 03:57:15;;;;;;;3.73;1.80;;;;;21.10;98577.00;;;;2084953;28;20212;-53
2023/11/10 03:58:15;;;;;;;3.70;1.90;;;;;21.10;98572.00;;;;2075286;28;20212;-53
2023/11/10 03:59:15;;;;;;;2.30;1.60;;;;;21.10;98577.00;;;;2086611;28;20236;-57
2023/11/10 04:00:18;;;;;;;5.60;1.80;;;;;21.00;98569.00;;;;2086630;28;20209;-53
2023/11/10 04:01:20;;;;;;;4.47;1.50;;;;;21.10;98571.00;;;;2085486;28;20319;-54
2023/11/10 04:02:20;;;;;;;3.20;1.65;;;;;21.10;98570.00;;;;2086141;28;20217;-53
2023/11/10 04:03:20;;;;;;;2.30;1.63;;;;;21.10;98577.00;;;;2075027;28;20208;-54
2023/11/10 04:04:20;;;;;;;2.63;1.50;;;;;21.10;98584.00;;;;2085506;28;20205;-55
2023/11/10 04:05:21;;;;;;;2.43;1.43;;;;;21.10;98583.00;;;;2085583;28;20205;-57
2023/11/10 04:06:21;;;;;;;3.63;1.73;;;;;21.10;98579.00;;;;2083196;28;20201;-56
2023/11/10 04:07:22;;;;;;;2.30;1.50;;;;;21.10;98582.00;;;;2084585;28;20283;-55
2023/11/10 04:08:22;;;;;;;2.20;1.50;;;;;20.60;98580.00;;;;2075078;28;20235;-57
2023/11/10 04:09:22;;;;;;;2.50;1.53;;;;;21.10;98582.00;;;;2085127;28;20205;-52
2023/11/10 04:10:23;;;;;;;4.93;1.77;;;;;21.10;98588.00;;;;2085632;28;20216;-55
2023/11/10 04:11:23;;;;;;;2.20;1.57;;;;;21.10;98594.00;;;;2086510;28;20209;-56
2023/11/10 04:12:24;;;;;;;2.70;1.60;;;;;21.10;98587.00;;;;2085195;28;20209;-56
2023/11/10 04:13:24;;;;;;;2.70;1.43;;;;;21.00;98591.00;;;;2076801;28;20563;-52
2023/11/10 04:14:25;;;;;;;3.10;1.47;;;;;21.10;98583.00;;;;2085856;28;20451;-53
2023/11/10 04:15:26;;;;;;;2.43;1.80;;;;;21.00;98591.00;;;;2086200;28;20212;-55
2023/11/10 04:16:26;;;;;;;2.30;1.30;;;;;21.00;98587.00;;;;2087723;28;20628;-54
2023/11/10 04:17:27;;;;;;;1.97;1.20;;;;;21.10;98582.00;;;;2085749;28;20209;-55
2023/11/10 04:18:27;;;;;;;2.30;1.50;;;;;21.10;98589.00;;;;2068885;28;20578;-58
2023/11/10 04:19:27;;;;;;;2.83;1.40;;;;;21.10;98591.00;;;;2079749;28;20210;-58
2023/11/10 04:20:28;;;;;;;3.00;1.50;;;;;21.00;98588.00;;;;2087196;28;20224;-53
2023/11/10 04:21:29;;;;;;;3.10;1.37;;;;;21.00;98591.00;;;;2087691;28;20342;-54
2023/11/10 04:22:30;;;;;;;2.10;1.05;;;;;21.00;98589.00;;;;2085070;28;20556;-55
2023/11/10 04:23:31;;;;;;;3.28;1.20;;;;;21.00;98586.00;;;;2082259;28;20211;-55
2023/11/10 04:24:33;;;;;;;1.73;1.23;;;;;21.10;98586.00;;;;2085831;28;20730;-59
2023/11/10 04:25:34;;;;;;;2.75;1.20;;;;;21.10;98592.00;;;;2086626;28;20399;-57
2023/11/10 04:26:34;;;;;;;2.70;1.70;;;;;21.00;98609.00;;;;2078244;28;20235;-57
2023/11/10 04:27:35;;;;;;;3.17;1.60;;;;;21.00;98593.00;;;;2081733;28;20304;-55
2023/11/10 04:28:39;;;;;;;2.95;1.30;;;;;21.00;98595.00;;;;2074828;28;20299;-57
2023/11/10 04:29:39;;;;;;;3.03;1.40;;;;;21.00;98596.00;;;;2084784;28;20308;-57
2023/11/10 04:30:40;;;;;;;2.13;1.20;;;;;21.00;98589.00;;;;2085901;28;20221;-58
2023/11/10 04:31:40;;;;;;;2.07;1.23;;;;;21.00;98595.00;;;;2085308;28;20240;-54
2023/11/10 04:32:40;;;;;;;1.90;1.27;;;;;21.10;98595.00;;;;2075013;28;20216;-54
2023/11/10 04:33:43;;;;;;;2.47;1.30;;;;;21.10;98596.00;;;;2083382;28;20221;-54
2023/11/10 04:34:43;;;;;;;2.00;1.25;;;;;21.10;98601.00;;;;2085059;28;20276;-55
2023/11/10 04:35:44;;;;;;;2.53;1.47;;;;;21.00;98594.00;;;;2085986;28;20224;-58
2023/11/10 04:36:46;;;;;;;2.43;1.23;;;;;21.00;98599.00;;;;2084729;28;20253;-56
2023/11/10 04:37:49;;;;;;;1.65;1.27;;;;;21.00;98593.00;;;;2070648;28;20692;-55
2023/11/10 04:38:49;;;;;;;1.92;1.17;;;;;21.00;98600.00;;;;2068325;28;20237;-53
2023/11/10 04:39:52;;;;;;;2.30;1.13;;;;;21.10;98586.00;;;;2068904;28;20210;-54
2023/11/10 04:40:52;;;;;;;2.72;1.20;;;;;21.00;98602.00;;;;2071134;28;20210;-57
2023/11/10 04:41:54;;;;;;;4.20;1.20;;;;;21.00;98590.00;;;;2081626;28;20278;-54
2023/11/10 04:42:57;;;;;;;1.80;1.10;;;;;21.00;98585.00;;;;2071669;28;21086;-56
2023/11/10 04:43:58;;;;;;;2.40;1.10;;;;;21.00;98586.00;;;;2081827;28;20217;-54
2023/11/10 04:44:58;;;;;;;1.90;1.20;;;;;21.10;98586.00;;;;2083710;28;20841;-57
2023/11/10 04:45:58;;;;;;;1.50;1.10;;;;;21.00;98597.00;;;;2084741;28;20240;-58
2023/11/10 04:46:59;;;;;;;2.40;0.97;;;;;21.00;98586.00;;;;2085386;28;20221;-58
2023/11/10 04:47:59;;;;;;;1.83;1.10;;;;;21.00;98585.00;;;;2071920;28;20685;-57
2023/11/10 04:48:59;;;;;;;2.20;1.00;;;;;21.00;98589.00;;;;2085627;28;20287;-54
2023/11/10 04:50:00;;;;;;;3.97;1.23;;;;;21.00;98594.00;;;;2085153;28;20215;-55
2023/11/10 04:51:03;;;;;;;2.77;1.20;;;;;21.00;98583.00;;;;2082956;28;20644;-54
2023/11/10 04:52:04;;;;;;;2.22;1.65;;;;;21.00;98590.00;;;;2075864;28;20312;-55
2023/11/10 04:53:04;;;;;;;3.58;0.90;;;;;21.00;98584.00;;;;2071781;28;20280;-54
2023/11/10 04:54:05;;;;;;;3.17;1.40;;;;;21.00;98590.00;;;;2085423;28;20325;-58
2023/11/10 04:55:07;;;;;;;1.30;0.90;;;;;21.00;98592.00;;;;2081583;28;20235;-56
2023/11/10 04:56:08;;;;;;;3.00;1.30;;;;;21.00;98582.00;;;;2085354;28;20585;-54
2023/11/10 04:57:08;;;;;;;3.97;1.37;;;;;21.00;98585.00;;;;2082366;28;20227;-53
2023/11/10 04:58:09;;;;;;;2.60;1.23;;;;;21.00;98588.00;;;;2073905;28;20270;-57
2023/11/10 04:59:10;;;;;;;1.77;0.90;;;;;21.00;98582.00;;;;2085572;28;20347;-57
2023/11/10 05:00:11;;;;;;;2.50;1.07;;;;;21.00;98586.00;;;;2081123;28;20236;-55
2023/11/10 05:01:11;;;;;;;1.45;0.82;;;;;21.00;98582.00;;;;2085719;28;21161;-58
2023/11/10 05:02:12;;;;;;;2.13;1.30;;;;;21.00;98585.00;;;;2077348;28;20279;-56